Time;durP1;ratioP1;P1;durP2;ratioP2;P2;SDS_P1;SDS_P2;PMS_P1;PMS_P2;Temp;Humidity;BMP_temperature;BMP_pressure;BME280_temperature;BME280_humidity;BME280_pressure;Samples;Min_cycle;Max_cycle;Signal;HPM_P1;HPM_P2
2021/07/05 00:01:25;;;;;;;7.80;7.20;;;23.20;79.60;;;;;;5090699;28;20468;-56
2021/07/05 00:03:53;;;;;;;9.90;8.90;;;23.20;79.80;;;;;;5090606;28;20440;-55
2021/07/05 00:06:20;;;;;;;7.60;7.00;;;23.20;80.20;;;;;;5090287;28;20426;-55
2021/07/05 00:08:46;;;;;;;8.57;7.80;;;23.20;80.30;;;;;;5090104;28;20442;-55
2021/07/05 00:11:13;;;;;;;9.50;8.63;;;23.20;80.50;;;;;;5090476;28;20455;-56
2021/07/05 00:13:40;;;;;;;9.17;7.80;;;23.10;80.70;;;;;;5090582;28;20797;-55
2021/07/05 00:16:07;;;;;;;8.83;8.00;;;23.10;81.00;;;;;;5090692;28;20433;-56
2021/07/05 00:18:34;;;;;;;8.60;7.80;;;23.00;81.20;;;;;;5090127;28;20523;-55
2021/07/05 00:21:02;;;;;;;9.00;8.07;;;23.00;81.40;;;;;;5090510;28;20474;-55
2021/07/05 00:23:28;;;;;;;8.90;8.20;;;22.80;81.70;;;;;;5090438;28;20438;-54
2021/07/05 00:25:55;;;;;;;9.10;8.40;;;22.90;82.10;;;;;;5090247;28;20428;-55
2021/07/05 00:28:22;;;;;;;8.43;7.73;;;22.90;82.30;;;;;;5090083;28;20446;-55
2021/07/05 00:30:49;;;;;;;11.07;9.37;;;22.90;82.50;;;;;;5090328;28;20492;-54
2021/07/05 00:33:16;;;;;;;10.10;9.20;;;22.90;82.80;;;;;;5090467;28;20421;-55
2021/07/05 00:35:42;;;;;;;9.00;8.30;;;22.80;83.10;;;;;;5090493;28;20444;-56
2021/07/05 00:38:10;;;;;;;9.80;8.83;;;22.80;83.20;;;;;;5090115;28;20815;-55
2021/07/05 00:40:37;;;;;;;10.43;9.33;;;22.80;83.50;;;;;;5090340;28;20450;-55
2021/07/05 00:43:04;;;;;;;11.10;9.40;;;22.70;83.60;;;;;;5090186;28;20441;-56
2021/07/05 00:45:32;;;;;;;10.73;9.73;;;22.70;83.90;;;;;;5089983;28;20960;-55
2021/07/05 00:47:59;;;;;;;9.63;8.83;;;22.70;84.20;;;;;;5090032;28;20524;-56
2021/07/05 00:50:27;;;;;;;10.10;9.30;;;22.70;84.30;;;;;;5089705;28;20482;-56
2021/07/05 00:52:57;;;;;;;10.87;9.87;;;22.70;84.40;;;;;;5090052;28;20423;-55
2021/07/05 00:55:26;;;;;;;15.53;9.83;;;22.70;84.60;;;;;;5090313;28;20428;-55
2021/07/05 00:57:53;;;;;;;10.70;9.70;;;22.70;84.90;;;;;;5090014;28;20456;-55
2021/07/05 01:00:22;;;;;;;11.53;10.43;;;22.70;84.90;;;;;;5089847;28;20457;-55
2021/07/05 01:02:50;;;;;;;10.50;9.60;;;22.70;85.10;;;;;;5090126;28;20992;-56
2021/07/05 01:05:17;;;;;;;11.43;10.53;;;22.60;85.10;;;;;;5092325;28;20475;-56
2021/07/05 01:07:45;;;;;;;10.83;9.80;;;22.60;85.40;;;;;;5094127;28;20896;-55
2021/07/05 01:10:14;;;;;;;9.50;8.70;;;22.60;85.50;;;;;;5092356;28;20487;-55
2021/07/05 01:12:42;;;;;;;10.37;9.43;;;22.60;85.70;;;;;;5094295;28;20464;-55
2021/07/05 01:15:11;;;;;;;10.83;9.93;;;22.50;85.90;;;;;;5094249;28;20441;-56
2021/07/05 01:17:39;;;;;;;11.00;10.00;;;22.50;86.20;;;;;;5094323;28;20428;-55
2021/07/05 01:20:08;;;;;;;12.77;11.60;;;22.50;86.40;;;;;;5093532;28;20477;-54
2021/07/05 01:22:36;;;;;;;11.10;10.10;;;22.40;86.80;;;;;;5094046;28;20439;-56
2021/07/05 01:25:05;;;;;;;9.80;9.00;;;22.40;87.20;;;;;;5094285;28;20437;-56
2021/07/05 01:27:31;;;;;;;10.83;9.93;;;22.40;87.30;;;;;;5094391;28;20436;-55
2021/07/05 01:29:58;;;;;;;12.30;11.17;;;22.40;87.50;;;;;;5093351;28;20472;-55
2021/07/05 01:32:24;;;;;;;11.30;10.30;;;22.30;87.70;;;;;;5093738;28;20784;-55
2021/07/05 01:34:51;;;;;;;10.57;9.57;;;22.30;87.90;;;;;;5093654;28;20448;-55
2021/07/05 01:37:18;;;;;;;10.90;9.80;;;22.30;88.10;;;;;;5093604;28;20824;-55
2021/07/05 01:39:46;;;;;;;13.37;12.27;;;22.30;88.40;;;;;;5093379;28;20432;-54
2021/07/05 01:42:12;;;;;;;9.60;8.80;;;22.30;88.70;;;;;;5093592;28;20425;-54
2021/07/05 01:44:39;;;;;;;10.30;9.30;;;22.20;88.90;;;;;;5093467;28;20429;-56
2021/07/05 01:47:06;;;;;;;11.73;10.73;;;22.20;89.50;;;;;;5093420;28;20777;-56
2021/07/05 01:49:33;;;;;;;12.77;11.47;;;22.10;89.90;;;;;;5092811;28;20477;-55
2021/07/05 01:52:00;;;;;;;10.90;10.00;;;22.10;90.10;;;;;;5093280;28;20474;-55
2021/07/05 01:54:27;;;;;;;12.33;11.23;;;22.00;90.20;;;;;;5093346;28;20452;-56
2021/07/05 01:56:55;;;;;;;13.03;11.93;;;22.00;90.30;;;;;;5093342;28;20919;-55
2021/07/05 01:59:22;;;;;;;12.80;11.50;;;22.00;90.40;;;;;;5092978;28;20527;-55
2021/07/05 02:01:48;;;;;;;12.57;11.47;;;22.00;90.50;;;;;;5091673;28;20483;-55
2021/07/05 02:04:15;;;;;;;11.97;10.77;;;21.90;90.70;;;;;;5093188;28;20439;-55
2021/07/05 02:06:42;;;;;;;12.30;11.10;;;21.90;91.00;;;;;;5093215;28;20443;-55
2021/07/05 02:09:09;;;;;;;12.53;11.53;;;21.80;91.20;;;;;;5092710;28;20460;-55
2021/07/05 02:11:36;;;;;;;11.97;10.90;;;21.80;91.30;;;;;;5092889;28;20463;-55
2021/07/05 02:14:05;;;;;;;12.33;11.43;;;21.70;91.50;;;;;;5093007;28;20434;-54
2021/07/05 02:16:32;;;;;;;14.23;12.73;;;21.70;91.80;;;;;;5092761;28;20542;-56
2021/07/05 02:18:59;;;;;;;12.83;11.83;;;21.60;92.00;;;;;;5092549;28;20439;-54
2021/07/05 02:21:26;;;;;;;12.87;11.40;;;21.50;92.20;;;;;;5092532;28;20826;-55
2021/07/05 02:23:52;;;;;;;12.93;11.73;;;21.50;92.40;;;;;;5091491;28;20888;-55
2021/07/05 02:26:19;;;;;;;13.27;11.83;;;21.40;92.60;;;;;;5092125;28;20448;-55
2021/07/05 02:28:46;;;;;;;13.23;12.03;;;21.40;92.90;;;;;;5091847;28;20783;-55
2021/07/05 02:31:14;;;;;;;13.17;11.93;;;21.40;93.10;;;;;;5092493;28;20511;-55
2021/07/05 02:33:41;;;;;;;12.73;11.43;;;21.30;93.20;;;;;;5092279;28;20426;-55
2021/07/05 02:36:09;;;;;;;12.17;11.10;;;21.30;93.50;;;;;;5092683;28;20519;-54
2021/07/05 02:38:37;;;;;;;13.80;12.50;;;21.30;93.80;;;;;;5092105;28;20932;-55
2021/07/05 02:41:05;;;;;;;13.93;12.73;;;21.20;94.10;;;;;;5092492;28;20967;-55
2021/07/05 02:43:31;;;;;;;13.63;12.43;;;21.20;94.30;;;;;;5092412;28;20802;-55
2021/07/05 02:45:59;;;;;;;14.70;13.37;;;21.20;94.50;;;;;;5092087;28;20939;-54
2021/07/05 02:48:30;;;;;;;17.50;13.00;;;21.10;94.70;;;;;;5092038;28;20508;-55
2021/07/05 02:50:59;;;;;;;14.00;12.70;;;21.10;94.90;;;;;;5091961;28;20548;-55
2021/07/05 02:53:27;;;;;;;13.47;12.13;;;21.10;95.20;;;;;;5092080;28;20812;-55
2021/07/05 02:55:54;;;;;;;14.03;12.63;;;21.10;95.40;;;;;;5091901;28;20443;-55
2021/07/05 02:58:20;;;;;;;14.83;13.37;;;21.00;95.50;;;;;;5091922;28;20435;-54
2021/07/05 03:00:49;;;;;;;14.10;12.80;;;21.00;95.70;;;;;;5091959;28;20457;-55
2021/07/05 03:03:16;;;;;;;15.13;13.57;;;21.00;95.90;;;;;;5091842;28;20434;-54
2021/07/05 03:05:45;;;;;;;13.30;12.20;;;21.00;96.10;;;;;;5091956;28;20505;-55
2021/07/05 03:08:11;;;;;;;13.40;12.10;;;21.00;96.20;;;;;;5091400;28;20433;-56
2021/07/05 03:10:40;;;;;;;14.87;13.40;;;21.00;96.50;;;;;;5091586;28;20489;-54
2021/07/05 03:13:08;;;;;;;16.40;13.77;;;21.00;96.70;;;;;;5091808;28;20440;-55
2021/07/05 03:15:36;;;;;;;16.13;13.83;;;21.00;96.80;;;;;;5091785;28;20431;-54
2021/07/05 03:18:04;;;;;;;15.60;13.67;;;21.10;97.10;;;;;;5091560;28;20426;-54
2021/07/05 03:20:40;;;;;;;15.97;14.37;;;21.10;97.20;;;;;;5091643;28;20996;-54
2021/07/05 03:23:09;;;;;;;14.63;13.33;;;21.10;97.40;;;;;;5091473;28;20846;-55
2021/07/05 03:25:37;;;;;;;15.30;13.80;;;21.10;97.50;;;;;;5091560;28;20437;-55
2021/07/05 03:28:05;;;;;;;16.23;14.77;;;21.10;97.50;;;;;;5090632;28;20430;-55
2021/07/05 03:30:33;;;;;;;15.47;14.17;;;21.20;97.60;;;;;;5091288;28;20478;-55
2021/07/05 03:33:00;;;;;;;16.80;15.03;;;21.20;97.70;;;;;;5091914;28;20435;-56
2021/07/05 03:35:27;;;;;;;16.57;14.90;;;21.30;97.70;;;;;;5091210;28;20445;-54
2021/07/05 03:37:55;;;;;;;15.97;14.67;;;21.30;97.80;;;;;;5091462;28;20430;-55
2021/07/05 03:40:25;;;;;;;16.60;15.00;;;21.40;97.80;;;;;;5091016;28;20450;-55
2021/07/05 03:42:52;;;;;;;16.57;15.07;;;21.50;97.80;;;;;;5091741;28;20637;-55
2021/07/05 03:45:21;;;;;;;16.07;14.77;;;21.50;97.80;;;;;;5091378;28;20438;-55
2021/07/05 03:47:48;;;;;;;16.43;14.93;;;21.60;97.80;;;;;;5091151;28;20434;-55
2021/07/05 03:50:16;;;;;;;15.80;14.50;;;21.60;97.70;;;;;;5090585;28;20484;-55
2021/07/05 03:52:43;;;;;;;15.50;14.20;;;21.60;97.70;;;;;;5091069;28;20430;-55
2021/07/05 03:55:12;;;;;;;18.77;14.83;;;21.70;97.70;;;;;;5091184;28;20431;-55
2021/07/05 03:57:40;;;;;;;15.57;14.37;;;21.70;97.60;;;;;;5091052;28;20431;-54
2021/07/05 04:00:10;;;;;;;15.93;14.63;;;21.80;97.50;;;;;;5090247;28;20445;-55
2021/07/05 04:02:37;;;;;;;15.47;14.27;;;21.90;97.50;;;;;;5091078;28;20446;-55
2021/07/05 04:05:04;;;;;;;17.30;15.50;;;21.90;97.30;;;;;;5089812;28;20462;-54
2021/07/05 04:07:31;;;;;;;15.30;14.03;;;22.00;97.20;;;;;;5089635;28;20449;-54
2021/07/05 04:09:58;;;;;;;16.20;14.83;;;22.10;97.10;;;;;;5090726;28;20432;-55
2021/07/05 04:12:24;;;;;;;16.47;14.93;;;22.10;97.00;;;;;;5089767;28;20455;-56
2021/07/05 04:14:52;;;;;;;16.43;15.03;;;22.20;96.90;;;;;;5091202;28;20428;-54
2021/07/05 04:17:19;;;;;;;15.93;14.53;;;22.30;96.80;;;;;;5090939;28;20439;-55
2021/07/05 04:19:47;;;;;;;16.87;15.10;;;22.30;96.60;;;;;;5090526;28;20866;-55
2021/07/05 04:22:14;;;;;;;15.97;14.60;;;22.30;96.40;;;;;;5090932;28;20921;-56
2021/07/05 04:24:41;;;;;;;16.93;15.43;;;22.40;96.40;;;;;;5091070;28;20446;-55
2021/07/05 04:27:08;;;;;;;16.97;15.57;;;22.50;96.30;;;;;;5091041;28;20528;-55
2021/07/05 04:29:35;;;;;;;15.40;14.20;;;22.60;96.10;;;;;;5090532;28;20437;-56
2021/07/05 04:32:03;;;;;;;15.60;14.27;;;22.70;95.90;;;;;;5090688;28;20487;-54
2021/07/05 04:34:31;;;;;;;15.50;14.20;;;22.90;95.80;;;;;;5089495;28;20459;-55
2021/07/05 04:36:58;;;;;;;16.37;14.63;;;22.90;95.60;;;;;;5090480;28;20964;-56
2021/07/05 04:39:24;;;;;;;15.70;14.10;;;22.90;95.40;;;;;;5092509;28;20431;-55
2021/07/05 04:41:51;;;;;;;17.73;15.93;;;22.90;95.40;;;;;;5094344;28;20502;-55
2021/07/05 04:44:18;;;;;;;15.30;13.73;;;22.90;95.30;;;;;;5094377;28;20445;-55
2021/07/05 04:46:48;;;;;;;15.20;13.93;;;23.00;95.30;;;;;;5094560;28;20429;-56
2021/07/05 04:49:17;;;;;;;14.93;13.50;;;23.10;95.10;;;;;;5094270;28;20424;-56
2021/07/05 04:51:44;;;;;;;15.13;13.90;;;23.10;94.80;;;;;;5094717;28;20485;-55
2021/07/05 04:54:11;;;;;;;15.07;13.80;;;23.20;94.70;;;;;;5094347;28;20439;-56
2021/07/05 04:56:37;;;;;;;14.80;13.50;;;23.30;94.60;;;;;;5094464;28;20437;-55
2021/07/05 04:59:06;;;;;;;15.03;13.63;;;23.30;94.40;;;;;;5094009;28;20433;-55
2021/07/05 05:01:33;;;;;;;14.07;12.87;;;23.40;94.20;;;;;;5093695;28;20532;-55
2021/07/05 05:04:00;;;;;;;16.37;13.17;;;23.40;94.20;;;;;;5093936;28;20431;-56
2021/07/05 05:06:28;;;;;;;14.87;13.40;;;23.50;94.00;;;;;;5093945;28;20496;-56
2021/07/05 05:08:55;;;;;;;14.00;12.50;;;23.60;93.90;;;;;;5093702;28;20426;-56
2021/07/05 05:11:22;;;;;;;14.00;12.83;;;23.60;93.80;;;;;;5092445;28;20988;-55
2021/07/05 05:13:48;;;;;;;15.03;13.53;;;23.60;93.70;;;;;;5094021;28;20439;-55
2021/07/05 05:16:16;;;;;;;13.73;12.40;;;23.60;93.60;;;;;;5093841;28;20452;-54
2021/07/05 05:18:43;;;;;;;13.57;12.27;;;23.60;93.50;;;;;;5093512;28;20430;-55
2021/07/05 05:21:10;;;;;;;14.63;13.20;;;23.70;93.50;;;;;;5093838;28;20445;-55
2021/07/05 05:23:38;;;;;;;13.23;11.93;;;23.70;93.30;;;;;;5093739;28;20432;-55
2021/07/05 05:26:05;;;;;;;15.50;14.03;;;23.80;93.20;;;;;;5093881;28;20931;-54
2021/07/05 05:28:32;;;;;;;16.47;14.90;;;24.00;93.20;;;;;;5093464;28;20430;-56
2021/07/05 05:30:59;;;;;;;15.40;13.67;;;24.20;93.10;;;;;;5093348;28;20873;-55
2021/07/05 05:33:26;;;;;;;15.03;13.73;;;24.40;92.90;;;;;;5093650;28;20803;-56
2021/07/05 05:35:52;;;;;;;15.90;13.23;;;24.50;92.60;;;;;;5093788;28;20802;-56
2021/07/05 05:38:20;;;;;;;14.77;13.47;;;24.70;92.30;;;;;;5093398;28;20440;-54
2021/07/05 05:40:48;;;;;;;16.27;14.53;;;24.80;91.90;;;;;;5093363;28;20471;-55
2021/07/05 05:43:15;;;;;;;13.70;12.43;;;24.90;91.80;;;;;;5093351;28;20425;-56
2021/07/05 05:45:41;;;;;;;14.53;13.33;;;24.90;91.70;;;;;;5093317;28;20440;-55
2021/07/05 05:48:08;;;;;;;13.20;11.87;;;25.00;91.40;;;;;;5092636;28;20431;-55
2021/07/05 05:50:34;;;;;;;12.70;11.63;;;25.10;91.40;;;;;;5091882;28;20547;-55
2021/07/05 05:53:01;;;;;;;13.33;11.97;;;25.20;91.30;;;;;;5092957;28;20947;-55
2021/07/05 05:55:28;;;;;;;15.97;12.70;;;25.10;91.10;;;;;;5093060;28;20440;-55
2021/07/05 05:57:56;;;;;;;15.47;13.93;;;25.10;91.10;;;;;;5093052;28;20431;-55
2021/07/05 06:00:24;;;;;;;16.93;13.10;;;25.10;91.10;;;;;;5092628;28;20480;-53
2021/07/05 06:02:52;;;;;;;13.20;12.20;;;25.10;91.30;;;;;;5093066;28;20852;-53
2021/07/05 06:05:19;;;;;;;14.70;13.40;;;25.10;91.60;;;;;;5092698;28;20820;-53
2021/07/05 06:07:49;;;;;;;14.87;13.47;;;25.10;91.30;;;;;;5092680;28;20429;-53
2021/07/05 06:10:17;;;;;;;13.40;12.20;;;25.20;91.20;;;;;;5092203;28;20509;-53
2021/07/05 06:12:45;;;;;;;12.33;11.23;;;25.20;91.10;;;;;;5092226;28;20494;-53
2021/07/05 06:15:14;;;;;;;13.77;12.30;;;25.20;91.10;;;;;;5092230;28;20536;-54
2021/07/05 06:17:41;;;;;;;14.60;12.50;;;25.20;91.10;;;;;;5092054;28;20861;-53
2021/07/05 06:20:09;;;;;;;13.37;12.27;;;25.20;91.10;;;;;;5092423;28;20452;-54
2021/07/05 06:22:42;;;;;;;12.83;11.73;;;25.20;91.00;;;;;;5092709;28;20591;-54
2021/07/05 06:25:11;;;;;;;13.33;12.13;;;25.30;90.80;;;;;;5092055;28;20444;-54
2021/07/05 06:27:38;;;;;;;12.77;11.73;;;25.40;90.70;;;;;;5093064;28;20433;-54
2021/07/05 06:30:06;;;;;;;11.93;10.83;;;25.40;90.50;;;;;;5091771;28;20480;-54
2021/07/05 06:32:34;;;;;;;10.10;9.13;;;25.50;90.50;;;;;;5091749;28;20468;-54
2021/07/05 06:35:01;;;;;;;11.43;10.07;;;25.50;90.30;;;;;;5092337;28;20576;-54
2021/07/05 06:37:27;;;;;;;12.07;10.83;;;25.50;90.20;;;;;;5092262;28;20436;-54
2021/07/05 06:39:54;;;;;;;10.83;9.67;;;25.60;90.10;;;;;;5091416;28;21018;-54
2021/07/05 06:42:21;;;;;;;10.90;10.00;;;25.80;90.10;;;;;;5090292;28;20437;-54
2021/07/05 06:44:48;;;;;;;11.37;10.47;;;25.80;90.10;;;;;;5091265;28;20443;-54
2021/07/05 06:47:14;;;;;;;10.93;9.93;;;25.80;90.00;;;;;;5091535;28;20532;-54
2021/07/05 06:49:42;;;;;;;11.03;10.23;;;25.80;90.00;;;;;;5090045;28;20942;-54
2021/07/05 06:52:09;;;;;;;12.50;9.87;;;25.80;90.10;;;;;;5091392;28;20484;-54
2021/07/05 06:54:36;;;;;;;10.77;9.70;;;25.80;90.20;;;;;;5091448;28;20783;-54
2021/07/05 06:57:04;;;;;;;11.60;10.40;;;25.70;90.30;;;;;;5091184;28;20439;-54
2021/07/05 06:59:31;;;;;;;12.30;9.70;;;25.80;90.40;;;;;;5090875;28;20526;-54
2021/07/05 07:01:57;;;;;;;11.70;10.50;;;25.80;90.40;;;;;;5088939;28;20467;-54
2021/07/05 07:04:24;;;;;;;10.83;9.67;;;25.80;90.50;;;;;;5091188;28;20508;-54
2021/07/05 07:06:52;;;;;;;15.27;8.83;;;25.90;90.60;;;;;;5091342;28;20445;-54
2021/07/05 07:09:19;;;;;;;10.30;9.20;;;26.00;90.60;;;;;;5090616;28;20431;-54
2021/07/05 07:11:46;;;;;;;10.47;9.53;;;26.00;90.60;;;;;;5090945;28;20483;-54
2021/07/05 07:14:13;;;;;;;12.03;10.90;;;26.10;90.40;;;;;;5092985;28;20421;-54
2021/07/05 07:16:44;;;;;;;10.07;9.07;;;26.10;90.50;;;;;;5091070;28;20522;-54
2021/07/05 07:19:20;;;;;;;11.13;10.23;;;26.00;90.40;;;;;;5090742;28;20429;-54
2021/07/05 07:21:49;;;;;;;10.30;9.40;;;26.00;90.50;;;;;;5091401;28;20459;-54
2021/07/05 07:24:17;;;;;;;10.47;9.57;;;25.90;90.60;;;;;;5090619;28;20612;-54
2021/07/05 07:26:44;;;;;;;11.53;10.10;;;25.90;90.70;;;;;;5090825;28;20524;-54
2021/07/05 07:29:11;;;;;;;10.50;9.50;;;25.70;90.90;;;;;;5090535;28;20424;-54
2021/07/05 07:31:37;;;;;;;10.17;9.10;;;25.70;90.90;;;;;;5090712;28;20473;-53
2021/07/05 07:34:04;;;;;;;9.97;9.17;;;25.70;90.90;;;;;;5090782;28;20938;-54
2021/07/05 07:36:31;;;;;;;13.53;9.37;;;25.70;90.80;;;;;;5090832;28;20444;-54
2021/07/05 07:39:01;;;;;;;12.83;9.20;;;25.70;90.90;;;;;;5090286;28;20445;-54
2021/07/05 07:41:31;;;;;;;10.00;8.70;;;25.60;90.90;;;;;;5090872;28;20538;-54
2021/07/05 07:43:59;;;;;;;9.97;8.97;;;25.50;91.00;;;;;;5091156;28;20527;-54
2021/07/05 07:46:26;;;;;;;9.67;8.40;;;25.50;91.10;;;;;;5091179;28;20986;-54
2021/07/05 07:48:52;;;;;;;13.80;8.87;;;25.40;91.20;;;;;;5090428;28;20531;-54
2021/07/05 07:51:19;;;;;;;12.37;8.33;;;25.20;91.30;;;;;;5090743;28;20485;-54
2021/07/05 07:53:46;;;;;;;9.20;8.30;;;25.20;91.60;;;;;;5090806;28;20437;-54
2021/07/05 07:56:13;;;;;;;8.67;7.80;;;25.20;91.80;;;;;;5090812;28;20466;-53
2021/07/05 07:58:41;;;;;;;8.67;7.87;;;25.10;91.90;;;;;;5090480;28;20932;-54
2021/07/05 08:01:08;;;;;;;7.73;6.93;;;25.00;92.10;;;;;;5090842;28;20982;-54
2021/07/05 08:03:35;;;;;;;18.00;7.83;;;25.00;92.30;;;;;;5090861;28;20436;-54
2021/07/05 08:06:01;;;;;;;8.17;7.47;;;25.00;92.50;;;;;;5090410;28;20443;-54
2021/07/05 08:08:28;;;;;;;8.53;7.67;;;24.90;93.10;;;;;;5090282;28;21019;-54
2021/07/05 08:10:55;;;;;;;9.13;8.30;;;24.90;93.70;;;;;;5090795;28;20498;-54
2021/07/05 08:13:22;;;;;;;10.43;9.20;;;24.80;94.30;;;;;;5089277;28;20484;-54
2021/07/05 08:15:52;;;;;;;10.20;9.20;;;24.70;95.10;;;;;;5094760;28;20428;-54
2021/07/05 08:18:19;;;;;;;9.80;8.70;;;24.70;96.10;;;;;;5094537;28;20830;-54
2021/07/05 08:20:46;;;;;;;9.03;8.23;;;24.60;96.70;;;;;;5094344;28;20458;-54
2021/07/05 08:23:13;;;;;;;10.23;8.43;;;24.50;96.90;;;;;;5094592;28;20443;-54
2021/07/05 08:25:40;;;;;;;10.10;8.10;;;24.50;97.40;;;;;;5094671;28;20425;-54
2021/07/05 08:28:06;;;;;;;12.40;11.23;;;24.30;98.30;;;;;;5094162;28;20452;-53
2021/07/05 08:30:33;;;;;;;9.07;8.17;;;24.30;98.70;;;;;;5094384;28;20448;-54
2021/07/05 08:33:01;;;;;;;11.67;8.30;;;24.20;99.20;;;;;;5092953;28;20567;-54
2021/07/05 08:35:28;;;;;;;9.27;8.50;;;24.10;99.40;;;;;;5094384;28;20779;-54
2021/07/05 08:37:55;;;;;;;8.27;7.47;;;24.10;99.70;;;;;;5094213;28;20448;-54
2021/07/05 08:40:23;;;;;;;10.43;7.63;;;24.00;99.90;;;;;;5093756;28;20520;-54
2021/07/05 08:42:50;;;;;;;10.40;6.97;;;23.90;99.90;;;;;;5094013;28;20540;-55
2021/07/05 08:45:17;;;;;;;10.13;7.40;;;23.90;99.90;;;;;;5092914;28;20752;-54
2021/07/05 08:47:48;;;;;;;11.03;6.87;;;23.90;99.90;;;;;;5093745;28;20828;-54
2021/07/05 08:50:17;;;;;;;11.53;7.90;;;23.80;99.90;;;;;;5093324;28;20471;-54
2021/07/05 08:52:45;;;;;;;8.27;7.40;;;23.80;99.90;;;;;;5092507;28;20483;-53
2021/07/05 08:55:13;;;;;;;7.37;6.73;;;23.70;99.90;;;;;;5094142;28;20441;-53
2021/07/05 08:57:41;;;;;;;8.63;6.33;;;23.70;99.90;;;;;;5094078;28;20432;-54
2021/07/05 09:00:11;;;;;;;7.67;6.97;;;23.70;99.90;;;;;;5093383;28;20452;-54
2021/07/05 09:02:38;;;;;;;7.93;7.13;;;23.70;99.90;;;;;;5093993;28;21058;-54
2021/07/05 09:05:06;;;;;;;8.47;7.07;;;23.60;99.90;;;;;;5093417;28;20437;-54
2021/07/05 09:07:34;;;;;;;8.40;7.57;;;23.60;99.90;;;;;;5093779;28;20430;-54
2021/07/05 09:10:03;;;;;;;10.57;8.67;;;23.60;99.90;;;;;;5093178;28;20431;-53
2021/07/05 09:12:30;;;;;;;7.93;7.20;;;23.60;99.90;;;;;;5093544;28;21003;-53
2021/07/05 09:15:06;;;;;;;7.93;7.13;;;23.60;99.90;;;;;;5093699;28;20432;-53
2021/07/05 09:17:34;;;;;;;9.47;8.60;;;23.60;99.90;;;;;;5093476;28;20514;-53
2021/07/05 09:20:02;;;;;;;10.40;8.00;;;23.50;99.90;;;;;;5092889;28;20530;-54
2021/07/05 09:22:29;;;;;;;10.10;8.20;;;23.50;99.90;;;;;;5093530;28;20469;-54
2021/07/05 09:24:59;;;;;;;9.97;8.57;;;23.40;99.90;;;;;;5092640;28;20522;-54
2021/07/05 09:27:33;;;;;;;10.00;8.10;;;23.40;99.90;;;;;;5093065;28;20585;-54
2021/07/05 09:30:07;;;;;;;10.40;8.23;;;23.40;99.90;;;;;;5092577;28;20426;-54
2021/07/05 09:32:34;;;;;;;8.87;7.97;;;23.50;99.90;;;;;;5093223;28;20476;-54
2021/07/05 09:35:12;;;;;;;9.50;8.60;;;23.50;99.90;;;;;;5093246;28;20432;-54
2021/07/05 09:37:51;;;;;;;11.50;8.50;;;23.60;99.90;;;;;;5092674;28;20954;-54
2021/07/05 09:40:19;;;;;;;11.43;8.77;;;23.60;99.90;;;;;;5092398;28;20451;-54
2021/07/05 09:42:47;;;;;;;9.60;8.70;;;23.60;99.90;;;;;;5091129;28;20512;-54
2021/07/05 09:45:17;;;;;;;9.10;8.30;;;23.60;99.90;;;;;;5092802;28;20430;-54
2021/07/05 09:47:44;;;;;;;11.00;8.87;;;23.60;99.90;;;;;;5093075;28;20442;-54
2021/07/05 09:50:13;;;;;;;11.17;10.03;;;23.60;99.90;;;;;;5092092;28;20474;-54
2021/07/05 09:52:41;;;;;;;10.60;8.60;;;23.60;99.90;;;;;;5092675;28;20485;-55
2021/07/05 09:55:10;;;;;;;11.60;10.40;;;23.60;99.90;;;;;;5092904;28;20736;-54
2021/07/05 09:57:50;;;;;;;13.57;10.37;;;23.60;99.90;;;;;;5092753;28;20435;-54
2021/07/05 10:00:19;;;;;;;11.30;10.20;;;23.60;99.90;;;;;;5092384;28;20456;-54
2021/07/05 10:03:00;;;;;;;12.33;10.77;;;23.50;99.90;;;;;;5092332;28;21026;-54
2021/07/05 10:05:32;;;;;;;13.03;11.77;;;23.50;99.90;;;;;;5092666;28;20908;-53
2021/07/05 10:08:00;;;;;;;12.17;11.07;;;23.40;99.90;;;;;;5092568;28;20517;-54
2021/07/05 10:10:27;;;;;;;12.47;11.40;;;23.40;99.90;;;;;;5092101;28;20450;-53
2021/07/05 10:12:56;;;;;;;11.23;10.13;;;23.40;99.90;;;;;;5092023;28;20481;-53
2021/07/05 10:15:24;;;;;;;11.40;10.20;;;23.30;99.90;;;;;;5092585;28;20438;-53
2021/07/05 10:17:53;;;;;;;10.70;9.57;;;23.30;99.90;;;;;;5090694;28;20553;-54
2021/07/05 10:20:23;;;;;;;10.33;9.20;;;23.30;99.90;;;;;;5091736;28;20443;-55
2021/07/05 10:22:51;;;;;;;10.53;9.37;;;23.30;99.90;;;;;;5092004;28;20452;-55
2021/07/05 10:25:20;;;;;;;11.13;10.00;;;23.30;99.90;;;;;;5092520;28;20430;-54
2021/07/05 10:27:46;;;;;;;13.37;12.17;;;23.40;99.90;;;;;;5091887;28;20435;-55
2021/07/05 10:30:16;;;;;;;13.50;12.20;;;23.40;99.90;;;;;;5090882;28;20969;-55
2021/07/05 10:32:44;;;;;;;12.03;10.80;;;23.50;99.90;;;;;;5091926;28;20474;-55
2021/07/05 10:35:13;;;;;;;11.33;10.03;;;23.60;99.90;;;;;;5090505;28;20437;-54
2021/07/05 10:37:46;;;;;;;10.70;9.63;;;23.60;99.90;;;;;;5091646;28;20440;-54
2021/07/05 10:40:13;;;;;;;9.77;8.90;;;23.70;99.90;;;;;;5091037;28;20453;-55
2021/07/05 10:42:42;;;;;;;10.00;9.10;;;23.80;99.90;;;;;;5091513;28;20446;-56
2021/07/05 10:45:11;;;;;;;11.57;10.53;;;23.90;99.90;;;;;;5091427;28;20478;-56
2021/07/05 10:47:52;;;;;;;8.33;7.63;;;24.00;99.90;;;;;;5090588;28;20459;-56
2021/07/05 10:50:46;;;;;;;11.50;9.60;;;24.20;99.90;;;;;;5107376;22;21000;-53
2021/07/05 10:53:15;;;;;;;11.03;9.97;;;24.30;99.90;;;;;;5050458;28;20576;-52
2021/07/05 10:55:43;;;;;;;12.73;9.60;;;24.40;99.90;;;;;;5051646;28;20444;-52
2021/07/05 10:58:22;;;;;;;9.80;8.80;;;24.50;99.90;;;;;;5050859;28;20473;-53
2021/07/05 11:00:50;;;;;;;8.23;7.53;;;24.60;99.90;;;;;;5051347;28;20994;-52
2021/07/05 11:03:47;;;;;;;8.30;7.50;;;24.70;99.90;;;;;;5051359;28;20436;-52
2021/07/05 11:06:45;;;;;;;9.43;7.27;;;24.70;99.90;;;;;;5051377;28;20529;-52
2021/07/05 11:09:19;;;;;;;8.33;7.50;;;24.70;99.90;;;;;;5050866;28;20985;-52
2021/07/05 11:11:48;;;;;;;7.80;7.10;;;24.70;99.90;;;;;;5050980;28;20455;-52
2021/07/05 11:14:20;;;;;;;8.37;7.57;;;24.70;99.90;;;;;;5051254;28;20483;-52
2021/07/05 11:17:09;;;;;;;9.20;7.50;;;24.70;99.90;;;;;;5051116;28;20503;-52
2021/07/05 11:19:55;;;;;;;9.43;8.63;;;24.60;99.90;;;;;;5050924;28;20789;-52
2021/07/05 11:22:27;;;;;;;9.77;8.80;;;24.50;99.90;;;;;;5050407;28;20781;-52
2021/07/05 11:25:04;;;;;;;8.87;7.97;;;24.50;99.90;;;;;;5050939;28;20794;-52
2021/07/05 11:27:49;;;;;;;9.13;8.27;;;24.40;99.90;;;;;;5050995;28;20445;-52
2021/07/05 11:30:30;;;;;;;9.33;8.53;;;24.30;99.90;;;;;;5050755;28;20468;-52
2021/07/05 11:33:01;;;;;;;8.67;7.40;;;24.30;99.90;;;;;;5050049;28;20477;-52
2021/07/05 11:35:39;;;;;;;8.50;7.70;;;24.20;99.90;;;;;;5050944;28;20582;-52
2021/07/05 11:38:09;;;;;;;7.80;7.10;;;24.20;99.90;;;;;;5050499;28;20437;-52
2021/07/05 11:40:45;;;;;;;8.47;7.73;;;24.20;99.90;;;;;;5032119;28;20469;-52
2021/07/05 11:43:13;;;;;;;8.63;7.93;;;24.20;99.90;;;;;;5050204;28;20441;-53
2021/07/05 11:45:47;;;;;;;9.20;7.27;;;24.20;99.90;;;;;;5050401;28;20540;-52
2021/07/05 11:48:53;;;;;;;7.10;6.40;;;24.00;99.90;;;;;;5049824;28;20442;-52
2021/07/05 11:51:24;;;;;;;10.83;6.83;;;24.00;99.90;;;;;;5050495;28;20501;-52
2021/07/05 11:53:52;;;;;;;8.30;7.50;;;24.00;99.90;;;;;;5050778;28;20513;-52
2021/07/05 11:56:35;;;;;;;6.80;6.13;;;24.10;99.90;;;;;;5050260;28;20429;-52
2021/07/05 11:59:05;;;;;;;6.63;6.00;;;24.40;99.90;;;;;;5050039;28;20436;-52
2021/07/05 12:01:32;;;;;;;5.53;5.13;;;24.70;99.90;;;;;;5049827;28;20460;-53
2021/07/05 12:04:00;;;;;;;9.33;6.50;;;25.00;99.90;;;;;;5049812;28;20437;-52
2021/07/05 12:06:29;;;;;;;6.97;6.27;;;25.10;99.90;;;;;;5049866;28;20815;-52
2021/07/05 12:08:58;;;;;;;10.43;7.13;;;25.30;99.90;;;;;;5049719;28;20457;-52
2021/07/05 12:11:36;;;;;;;7.80;6.77;;;25.50;99.90;;;;;;5050160;28;20469;-52
2021/07/05 12:14:13;;;;;;;6.53;5.93;;;25.60;99.90;;;;;;5049827;28;20482;-52
2021/07/05 12:16:42;;;;;;;9.50;7.10;;;25.70;99.60;;;;;;5050105;28;20442;-52
2021/07/05 12:19:12;;;;;;;10.20;5.93;;;25.70;99.60;;;;;;5049752;28;20433;-53
2021/07/05 12:21:43;;;;;;;6.30;5.80;;;25.70;99.30;;;;;;5050397;28;20443;-53
2021/07/05 12:24:16;;;;;;;6.53;6.03;;;25.70;99.20;;;;;;5050286;28;20431;-53
2021/07/05 12:26:45;;;;;;;7.53;6.83;;;25.70;99.10;;;;;;5050134;28;20446;-53
2021/07/05 12:29:15;;;;;;;7.50;6.60;;;25.60;98.90;;;;;;5049938;28;20530;-53
2021/07/05 12:32:05;;;;;;;8.50;6.60;;;25.70;98.60;;;;;;5049865;28;20465;-53
2021/07/05 12:34:41;;;;;;;6.50;6.00;;;25.60;98.50;;;;;;5049743;28;20490;-53
2021/07/05 12:37:14;;;;;;;7.30;6.70;;;25.70;98.40;;;;;;5050244;28;20450;-52
2021/07/05 12:39:50;;;;;;;6.50;6.00;;;25.80;98.20;;;;;;5049995;28;20460;-53
2021/07/05 12:42:32;;;;;;;7.50;6.77;;;25.90;98.10;;;;;;5050483;28;20827;-52
2021/07/05 12:45:01;;;;;;;6.07;5.57;;;26.00;97.70;;;;;;5049919;28;20446;-52